Herschel Island, Yukon

Past 24 Hour Conditions

Date / Time
(PDT)
Conditions Temp
(°F)
Humidity
(%)
Dew Point
(°F)
Wind
(mph)
Pressure
(inches)
Vis
(mi)
Wind Chill
25 October 2014
22:00 N/A 16 83 12 WSW 12 29.8 N/A 3
21:00 N/A 17 90 14 W 11 29.8 N/A 4
20:00 N/A 9   87 5 calm 29.8 N/A *
19:00 N/A 18 88 15 W 6 29.8 N/A 10
18:00 N/A 21 86 17 SW 5 29.8 N/A 14
17:00 N/A 18 76 12 E 7 29.8 N/A 9
16:00 N/A 24   74 17 ESE 9 29.8 N/A 15
15:00 N/A 24   79 18 ESE 11 29.8 N/A 13
14:00 N/A 22 82 17 E 9 29.8 N/A 13
13:00 N/A 16 88 13 ENE 8 29.9 N/A 6
12:00 N/A 12 82 8 calm 29.9 N/A 10
11:00 N/A 19 84 14 NNW 2 29.9 N/A 16
10:00 N/A 18 85 15 NNW 3 29.9 N/A 14
9:00 N/A 19 84 15 WNW 2 29.9 N/A 16
8:00 N/A 19 85 15 NNW 2 29.9 N/A 16
7:00 N/A 18 88 15 NW 3 29.9 N/A 12
6:00 N/A 19 88 16 NW 3 29.9 N/A 14
5:00 N/A 22 86 18 W 8 29.9 N/A 13
4:00 N/A 23 87 19 W 4 29.9 N/A 18
3:00 N/A 22 83 17 NW 3 29.9 N/A 17
2:00 N/A 21 84 17 W 12 29.9 N/A 9
1:00 N/A 20 85 17 W 9 29.9 N/A 10
00:00 N/A 19 86 16 W 8 29.9 N/A 10
24 October 2014
23:00 N/A 16 87 13 NW 3 29.9 N/A 10
22:00 N/A 17 87 14 WNW 5 29.9 N/A 9
N/A Not available
↑ Highest temperature
↓ Lowest temperature
* Value not significant.

If you require additional historical weather information, please visit Climate Data Online.

Date modified: